Whitcomb Heights, Indiana
Current Conditions -  °F | °C
As of 4:53 PM on Wednesday 22 Oct 2014 (Local Time) from KHUF Reporting Station
Clear Clear  
Wind Chill: 59°   Ceiling: Unl
Heat Index: 59°   Visibility: 10mi
Dew Point: 41°   Wind: 5mph
Humidity: 51%   Direction: 120°ESE
Pressure: 30.26"   Gusts: NA
Location:  39.5107°N, 87.4772°W
Report Text: KHUF 222053Z 12004KT 10SM CLR 15/05 A3026 RMK AO2 SLP248 T01500050 56017
Loading
Personal Weather Stations






























Interactive Weather Map
Tropical Storm Tracking
New forecast layout! Learn more

10-Day Weather Forecast

Advertisements
Track Severe Weather on mobile